Time;durP1;ratioP1;P1;durP2;ratioP2;P2;SDS_P1;SDS_P2;PMS_P1;PMS_P2;Temp;Humidity;BMP_temperature;BMP_pressure;BME280_temperature;BME280_humidity;BME280_pressure;Samples;Min_cycle;Max_cycle;Signal;HPM_P1;HPM_P2
2022/01/29 00:00:25;;;;;;;70.05;34.58;;;;;;;;;;4996264;28;20034;-68
2022/01/29 00:02:53;;;;;;;76.88;34.47;;;;;;;;;;4962774;28;20031;-67
2022/01/29 00:05:19;;;;;;;79.88;37.30;;;;;;;;;;4962730;28;20062;-67
2022/01/29 00:07:45;;;;;;;74.30;35.33;;;;;;;;;;4967656;28;20085;-69
2022/01/29 00:10:12;;;;;;;74.93;35.38;;;;;;;;;;4975714;28;20043;-68
2022/01/29 00:12:39;;;;;;;70.55;35.25;;;;;;;;;;4966712;28;20039;-69
2022/01/29 00:15:05;;;;;;;74.88;35.28;;;;;;;;;;4983834;28;20061;-70
2022/01/29 00:17:31;;;;;;;79.75;37.20;;;;;;;;;;4969385;28;20026;-69
2022/01/29 00:19:57;;;;;;;80.50;35.60;;;;;;;;;;4974329;28;20023;-68
2022/01/29 00:22:23;;;;;;;74.38;35.97;;;;;;;;;;4966953;28;20049;-71
2022/01/29 00:24:50;;;;;;;84.07;37.55;;;;;;;;;;4969197;28;20035;-69
2022/01/29 00:27:18;;;;;;;76.97;37.50;;;;;;;;;;4969967;28;20035;-68
2022/01/29 00:29:44;;;;;;;77.85;36.33;;;;;;;;;;4966978;28;20022;-69
2022/01/29 00:32:11;;;;;;;86.63;37.25;;;;;;;;;;4970805;28;20031;-68
2022/01/29 00:34:37;;;;;;;93.07;39.72;;;;;;;;;;4967865;28;20037;-69
2022/01/29 00:37:04;;;;;;;88.30;40.30;;;;;;;;;;4973792;28;20038;-71
2022/01/29 00:39:30;;;;;;;86.85;40.50;;;;;;;;;;4972296;28;20075;-68
2022/01/29 00:41:56;;;;;;;95.35;40.15;;;;;;;;;;4964082;28;20035;-69
2022/01/29 00:44:22;;;;;;;91.55;40.38;;;;;;;;;;4967278;28;20030;-69
2022/01/29 00:46:48;;;;;;;99.20;41.60;;;;;;;;;;4997362;28;20031;-68
2022/01/29 00:49:15;;;;;;;98.53;41.03;;;;;;;;;;4968710;28;20555;-69
2022/01/29 00:51:41;;;;;;;98.68;41.05;;;;;;;;;;4967148;28;20117;-68
2022/01/29 00:54:07;;;;;;;98.18;41.42;;;;;;;;;;4967826;28;20155;-68
2022/01/29 00:56:34;;;;;;;99.03;40.28;;;;;;;;;;4986635;28;20031;-68
2022/01/29 00:59:00;;;;;;;96.03;41.35;;;;;;;;;;4985623;28;20089;-70
2022/01/29 01:01:26;;;;;;;100.40;42.03;;;;;;;;;;4967120;28;20031;-69
2022/01/29 01:03:52;;;;;;;97.00;41.47;;;;;;;;;;4999138;28;20069;-69
2022/01/29 01:06:19;;;;;;;91.63;41.22;;;;;;;;;;4964849;28;20046;-69
2022/01/29 01:08:45;;;;;;;93.82;39.75;;;;;;;;;;4965623;28;20077;-69
2022/01/29 01:11:11;;;;;;;91.40;38.75;;;;;;;;;;4985269;28;20066;-70
2022/01/29 01:13:37;;;;;;;95.38;39.50;;;;;;;;;;5003704;28;20077;-69
2022/01/29 01:16:03;;;;;;;90.43;39.00;;;;;;;;;;4986673;28;20035;-70
2022/01/29 01:18:29;;;;;;;92.65;37.47;;;;;;;;;;4960544;28;20042;-68
2022/01/29 01:20:55;;;;;;;90.55;37.35;;;;;;;;;;4961735;28;20035;-68
2022/01/29 01:23:22;;;;;;;85.30;37.30;;;;;;;;;;4962115;28;20362;-69
2022/01/29 01:25:48;;;;;;;96.93;38.38;;;;;;;;;;4966609;28;20023;-70
2022/01/29 01:28:14;;;;;;;95.03;38.70;;;;;;;;;;4963900;28;20095;-69
2022/01/29 01:30:41;;;;;;;103.53;37.83;;;;;;;;;;4980613;28;20140;-69
2022/01/29 01:33:08;;;;;;;96.75;37.67;;;;;;;;;;4966938;28;20480;-73
2022/01/29 01:35:43;;;;;;;86.40;38.33;;;;;;;;;;4971192;28;20015;-68
2022/01/29 01:38:26;;;;;;;104.60;40.30;;;;;;;;;;4966612;28;20086;-69
2022/01/29 01:40:57;;;;;;;97.10;38.15;;;;;;;;;;4962780;28;20042;-69
2022/01/29 01:43:23;;;;;;;97.03;37.38;;;;;;;;;;4977917;28;20118;-70
2022/01/29 01:45:49;;;;;;;83.97;37.08;;;;;;;;;;4965775;28;20031;-68
2022/01/29 01:48:16;;;;;;;92.03;38.00;;;;;;;;;;4968533;28;20031;-68
2022/01/29 01:50:42;;;;;;;87.90;37.67;;;;;;;;;;4963532;28;20022;-68
2022/01/29 01:53:08;;;;;;;91.55;38.97;;;;;;;;;;4976039;28;20685;-68
2022/01/29 01:55:35;;;;;;;80.93;34.83;;;;;;;;;;4969294;28;20044;-68
2022/01/29 01:58:01;;;;;;;79.07;34.90;;;;;;;;;;4959645;28;20339;-68
2022/01/29 02:00:27;;;;;;;77.68;36.45;;;;;;;;;;4962795;28;20304;-69
2022/01/29 02:02:54;;;;;;;77.32;36.55;;;;;;;;;;4959792;28;20035;-69
2022/01/29 02:05:20;;;;;;;78.13;34.70;;;;;;;;;;4975589;28;20035;-69
2022/01/29 02:07:46;;;;;;;77.95;35.28;;;;;;;;;;4964184;28;20476;-68
2022/01/29 02:10:13;;;;;;;59.30;32.15;;;;;;;;;;4962713;28;20106;-70
2022/01/29 02:12:48;;;;;;;69.72;32.45;;;;;;;;;;4962207;28;20046;-69
2022/01/29 02:15:15;;;;;;;60.63;30.75;;;;;;;;;;4963909;28;20089;-68
2022/01/29 02:17:41;;;;;;;61.30;30.40;;;;;;;;;;4969439;28;20026;-68
2022/01/29 02:20:08;;;;;;;60.83;29.05;;;;;;;;;;4954415;28;20049;-68
2022/01/29 02:22:34;;;;;;;58.42;28.63;;;;;;;;;;4958122;28;20027;-69
2022/01/29 02:25:00;;;;;;;58.05;27.90;;;;;;;;;;4960672;28;20031;-69
2022/01/29 02:27:26;;;;;;;48.40;27.60;;;;;;;;;;4957893;28;20496;-69
2022/01/29 02:29:52;;;;;;;53.45;28.00;;;;;;;;;;4956689;28;20050;-68
2022/01/29 02:32:18;;;;;;;46.72;27.10;;;;;;;;;;4975123;28;20057;-68
2022/01/29 02:34:44;;;;;;;47.45;27.45;;;;;;;;;;4973821;28;20038;-68
2022/01/29 02:37:10;;;;;;;50.30;28.35;;;;;;;;;;4961384;28;20023;-69
2022/01/29 02:39:37;;;;;;;49.17;27.27;;;;;;;;;;4957899;28;20075;-69
2022/01/29 02:42:03;;;;;;;47.72;28.05;;;;;;;;;;4960238;28;20035;-70
2022/01/29 02:44:31;;;;;;;57.85;28.83;;;;;;;;;;4956017;28;20035;-68
2022/01/29 02:47:13;;;;;;;56.80;29.95;;;;;;;;;;4961055;28;20031;-68
2022/01/29 02:49:39;;;;;;;59.35;30.55;;;;;;;;;;4965897;28;20026;-68
2022/01/29 02:52:24;;;;;;;61.45;32.03;;;;;;;;;;4961191;28;20449;-68
2022/01/29 02:54:50;;;;;;;57.97;31.23;;;;;;;;;;4954573;28;20050;-68
2022/01/29 02:57:18;;;;;;;65.65;31.98;;;;;;;;;;4972420;28;20043;-68
2022/01/29 02:59:44;;;;;;;66.88;32.72;;;;;;;;;;4956230;28;20534;-69
2022/01/29 03:02:10;;;;;;;59.28;31.63;;;;;;;;;;4976685;28;20117;-69
2022/01/29 03:04:36;;;;;;;68.43;34.00;;;;;;;;;;4961652;28;20031;-68
2022/01/29 03:07:02;;;;;;;63.35;31.83;;;;;;;;;;4958677;28;20570;-68
2022/01/29 03:09:28;;;;;;;68.90;33.08;;;;;;;;;;4964338;28;20047;-68
2022/01/29 03:11:56;;;;;;;71.30;32.08;;;;;;;;;;4958568;28;20057;-68
2022/01/29 03:14:22;;;;;;;63.42;29.88;;;;;;;;;;4961115;28;20050;-67
2022/01/29 03:16:48;;;;;;;59.22;30.45;;;;;;;;;;4964167;28;20058;-68
2022/01/29 03:19:14;;;;;;;56.13;29.10;;;;;;;;;;4953691;28;20055;-68
2022/01/29 03:21:40;;;;;;;61.70;28.67;;;;;;;;;;4955659;28;20035;-68
2022/01/29 03:24:06;;;;;;;60.90;29.10;;;;;;;;;;4952678;28;20027;-68
2022/01/29 03:26:32;;;;;;;55.58;27.45;;;;;;;;;;4969838;28;20062;-68
2022/01/29 03:28:58;;;;;;;57.25;26.85;;;;;;;;;;4959524;28;20043;-69
2022/01/29 03:31:27;;;;;;;54.65;26.80;;;;;;;;;;4960419;28;20042;-69
2022/01/29 03:33:54;;;;;;;55.63;26.67;;;;;;;;;;4968492;28;20030;-68
2022/01/29 03:36:20;;;;;;;61.25;27.23;;;;;;;;;;4963472;28;20126;-69
2022/01/29 03:38:46;;;;;;;53.50;24.00;;;;;;;;;;4977299;28;20090;-70
2022/01/29 03:41:13;;;;;;;55.85;25.48;;;;;;;;;;4964324;28;20039;-69
2022/01/29 03:43:47;;;;;;;66.03;25.73;;;;;;;;;;4963825;28;20038;-68
2022/01/29 03:46:13;;;;;;;49.30;24.80;;;;;;;;;;4969075;28;20027;-69
2022/01/29 03:48:39;;;;;;;51.15;24.83;;;;;;;;;;4963945;28;20027;-68
2022/01/29 03:51:06;;;;;;;52.72;24.95;;;;;;;;;;4971988;28;20090;-68
2022/01/29 03:53:32;;;;;;;51.03;23.65;;;;;;;;;;4955602;28;20047;-68
2022/01/29 03:55:58;;;;;;;51.60;23.55;;;;;;;;;;4959813;28;20031;-69
2022/01/29 03:58:24;;;;;;;53.67;24.77;;;;;;;;;;4953539;28;20401;-69
2022/01/29 04:00:51;;;;;;;58.25;23.60;;;;;;;;;;4953428;28;20035;-69
2022/01/29 04:03:17;;;;;;;52.10;22.33;;;;;;;;;;4962525;28;20050;-68
2022/01/29 04:05:43;;;;;;;45.88;23.00;;;;;;;;;;4966044;28;20034;-69
2022/01/29 04:08:15;;;;;;;41.90;21.45;;;;;;;;;;4964458;28;20051;-69
2022/01/29 04:10:42;;;;;;;47.00;22.20;;;;;;;;;;4960979;28;20032;-69
2022/01/29 04:13:11;;;;;;;47.72;21.92;;;;;;;;;;4955132;28;20066;-70
2022/01/29 04:15:37;;;;;;;47.45;21.08;;;;;;;;;;4964793;28;20125;-68
2022/01/29 04:18:03;;;;;;;44.17;20.80;;;;;;;;;;4970588;28;20023;-69
2022/01/29 04:20:30;;;;;;;44.47;21.15;;;;;;;;;;4965111;28;20086;-69
2022/01/29 04:22:56;;;;;;;48.85;19.83;;;;;;;;;;4958593;28;20034;-69
2022/01/29 04:25:23;;;;;;;45.53;18.95;;;;;;;;;;4971755;28;20028;-69
2022/01/29 04:27:49;;;;;;;39.53;19.83;;;;;;;;;;4960609;28;20027;-69
2022/01/29 04:30:28;;;;;;;42.40;19.30;;;;;;;;;;4965946;28;20046;-69
2022/01/29 04:32:59;;;;;;;40.97;18.88;;;;;;;;;;4960550;28;20035;-69
2022/01/29 04:35:25;;;;;;;37.42;19.08;;;;;;;;;;4961370;28;20038;-69
2022/01/29 04:37:51;;;;;;;37.85;18.45;;;;;;;;;;4965489;28;20035;-68
2022/01/29 04:40:17;;;;;;;38.13;18.38;;;;;;;;;;4971243;28;20054;-68
2022/01/29 04:42:43;;;;;;;34.10;17.50;;;;;;;;;;4973662;28;20376;-68
2022/01/29 04:45:09;;;;;;;43.92;17.92;;;;;;;;;;4957958;28;20114;-69
2022/01/29 04:47:35;;;;;;;36.90;17.38;;;;;;;;;;4954863;28;20071;-68
2022/01/29 04:50:01;;;;;;;33.95;17.42;;;;;;;;;;4965758;28;20034;-69
2022/01/29 04:52:28;;;;;;;36.45;17.33;;;;;;;;;;4955195;28;20024;-69
2022/01/29 04:54:54;;;;;;;41.05;17.88;;;;;;;;;;4962905;28;20220;-69
2022/01/29 04:57:20;;;;;;;37.40;17.60;;;;;;;;;;4958999;28;20118;-69
2022/01/29 04:59:46;;;;;;;32.65;16.30;;;;;;;;;;4962478;28;20027;-68
2022/01/29 05:02:12;;;;;;;34.92;17.45;;;;;;;;;;4963858;28;20105;-68
2022/01/29 05:04:38;;;;;;;32.97;18.33;;;;;;;;;;4975639;28;20058;-68
2022/01/29 05:07:04;;;;;;;34.22;16.48;;;;;;;;;;4961529;28;20266;-68
2022/01/29 05:09:30;;;;;;;38.60;16.77;;;;;;;;;;4961514;28;20055;-68
2022/01/29 05:11:59;;;;;;;33.63;16.95;;;;;;;;;;4981132;28;20050;-68
2022/01/29 05:14:46;;;;;;;40.85;17.88;;;;;;;;;;4961215;28;20036;-68
2022/01/29 05:27:55;;;;;;;42.35;17.98;;;;;;;;;;4957810;28;21383;-69
2022/01/29 05:30:21;;;;;;;34.60;16.85;;;;;;;;;;4971079;28;20082;-69
2022/01/29 05:32:47;;;;;;;33.13;17.60;;;;;;;;;;4962811;28;20062;-69
2022/01/29 05:35:13;;;;;;;33.53;15.70;;;;;;;;;;4971304;28;20684;-69
2022/01/29 05:37:39;;;;;;;28.25;15.35;;;;;;;;;;4967028;28;20030;-69
2022/01/29 05:40:06;;;;;;;36.05;16.17;;;;;;;;;;4961340;28;20118;-69
2022/01/29 05:42:32;;;;;;;38.17;17.08;;;;;;;;;;4960051;28;20482;-68
2022/01/29 05:44:58;;;;;;;30.27;15.88;;;;;;;;;;4963236;28;20042;-70
2022/01/29 05:47:24;;;;;;;35.25;15.38;;;;;;;;;;4964507;28;20071;-69
2022/01/29 05:49:50;;;;;;;36.92;17.45;;;;;;;;;;4964392;28;20030;-69
2022/01/29 05:52:16;;;;;;;42.08;16.40;;;;;;;;;;4962311;28;20477;-69
2022/01/29 05:54:42;;;;;;;36.25;16.70;;;;;;;;;;4960164;28;20090;-68
2022/01/29 05:57:09;;;;;;;36.33;17.08;;;;;;;;;;4966396;28;20090;-71
2022/01/29 05:59:36;;;;;;;51.95;18.70;;;;;;;;;;4957277;28;20198;-68
2022/01/29 06:02:02;;;;;;;34.92;17.90;;;;;;;;;;4966459;28;20055;-68
2022/01/29 06:04:28;;;;;;;40.40;19.40;;;;;;;;;;4965656;28;21780;-68
2022/01/29 06:06:55;;;;;;;43.60;20.15;;;;;;;;;;4960112;28;20055;-68
2022/01/29 06:09:21;;;;;;;44.08;20.70;;;;;;;;;;4964303;28;20042;-68
2022/01/29 06:11:47;;;;;;;48.38;21.58;;;;;;;;;;4967038;28;20066;-67
2022/01/29 06:14:13;;;;;;;45.10;21.90;;;;;;;;;;4970279;28;20042;-68
2022/01/29 06:16:39;;;;;;;44.80;22.08;;;;;;;;;;4959926;28;20125;-68
2022/01/29 06:19:05;;;;;;;48.20;23.33;;;;;;;;;;4970796;28;20035;-68
2022/01/29 06:21:31;;;;;;;50.00;23.58;;;;;;;;;;4964656;28;20047;-69
2022/01/29 06:23:58;;;;;;;53.50;23.52;;;;;;;;;;4961274;28;20093;-70
2022/01/29 06:26:24;;;;;;;51.60;22.55;;;;;;;;;;4959715;28;20098;-68
2022/01/29 06:28:50;;;;;;;51.20;22.48;;;;;;;;;;4964636;28;20069;-69
2022/01/29 06:31:16;;;;;;;58.17;23.05;;;;;;;;;;4971954;28;20062;-69
2022/01/29 06:33:42;;;;;;;43.75;22.83;;;;;;;;;;4989561;28;20027;-68
2022/01/29 06:36:27;;;;;;;42.72;23.73;;;;;;;;;;4957579;28;20492;-68
2022/01/29 06:38:53;;;;;;;42.92;21.80;;;;;;;;;;4960332;28;20035;-67
2022/01/29 06:41:19;;;;;;;51.65;23.35;;;;;;;;;;4963601;28;20094;-69
2022/01/29 06:43:45;;;;;;;46.75;21.73;;;;;;;;;;4962934;28;20086;-67
2022/01/29 06:46:11;;;;;;;41.78;20.45;;;;;;;;;;4967330;28;20050;-69
2022/01/29 06:48:37;;;;;;;40.55;21.00;;;;;;;;;;4960907;28;20030;-67
2022/01/29 06:51:03;;;;;;;44.20;19.92;;;;;;;;;;4960167;28;20039;-67
2022/01/29 06:53:29;;;;;;;51.38;20.50;;;;;;;;;;4962197;28;20035;-68
2022/01/29 06:55:55;;;;;;;39.78;18.92;;;;;;;;;;4964518;28;20038;-67
2022/01/29 06:58:21;;;;;;;42.33;19.15;;;;;;;;;;4966377;28;20528;-69
2022/01/29 07:00:47;;;;;;;43.53;19.10;;;;;;;;;;4963511;28;20059;-68
2022/01/29 07:03:13;;;;;;;37.97;18.17;;;;;;;;;;4960816;28;20089;-68
2022/01/29 07:05:39;;;;;;;33.15;17.98;;;;;;;;;;4961598;28;20042;-68
2022/01/29 07:08:05;;;;;;;42.22;19.13;;;;;;;;;;4954036;28;20043;-71
2022/01/29 07:10:31;;;;;;;40.33;18.48;;;;;;;;;;4961068;28;20396;-69
2022/01/29 07:12:58;;;;;;;40.55;18.77;;;;;;;;;;4966504;28;20060;-68
2022/01/29 07:15:24;;;;;;;32.58;18.75;;;;;;;;;;4965389;28;20041;-69
2022/01/29 07:17:50;;;;;;;36.63;18.15;;;;;;;;;;4967267;28;20197;-68
2022/01/29 07:20:16;;;;;;;39.92;17.85;;;;;;;;;;4964175;28;20177;-69
2022/01/29 07:22:42;;;;;;;35.63;17.73;;;;;;;;;;4962232;28;20212;-69
2022/01/29 07:25:08;;;;;;;36.28;18.38;;;;;;;;;;4969691;28;20569;-68
2022/01/29 07:27:34;;;;;;;39.10;18.13;;;;;;;;;;4953591;28;20039;-69
2022/01/29 07:30:00;;;;;;;42.33;18.05;;;;;;;;;;4966719;28;20035;-68
2022/01/29 07:32:26;;;;;;;39.55;17.13;;;;;;;;;;4966544;28;20511;-69
2022/01/29 07:34:52;;;;;;;34.92;15.68;;;;;;;;;;4965900;28;20027;-70
2022/01/29 07:37:18;;;;;;;39.50;16.30;;;;;;;;;;4964029;28;20081;-68
2022/01/29 07:39:44;;;;;;;42.88;16.63;;;;;;;;;;4970587;28;20054;-68
2022/01/29 07:42:10;;;;;;;39.33;16.17;;;;;;;;;;4971245;28;20047;-68
2022/01/29 07:44:36;;;;;;;37.55;16.52;;;;;;;;;;4970657;28;20516;-68
2022/01/29 07:47:02;;;;;;;31.45;16.45;;;;;;;;;;4971323;28;20110;-69
2022/01/29 07:49:28;;;;;;;38.30;15.98;;;;;;;;;;4971655;28;20129;-68
2022/01/29 07:51:54;;;;;;;30.95;15.90;;;;;;;;;;4971363;28;20026;-69
2022/01/29 07:54:21;;;;;;;41.95;17.73;;;;;;;;;;4969502;28;20039;-69
2022/01/29 07:56:46;;;;;;;39.50;16.25;;;;;;;;;;4977913;28;20038;-69
2022/01/29 07:59:12;;;;;;;41.83;16.45;;;;;;;;;;4990412;28;20042;-68
2022/01/29 08:01:39;;;;;;;39.75;14.73;;;;;;;;;;4968237;28;20043;-68
2022/01/29 08:04:05;;;;;;;27.08;15.35;;;;;;;;;;4952493;28;20034;-68
2022/01/29 08:06:31;;;;;;;35.13;16.40;;;;;;;;;;4983727;28;20035;-67
2022/01/29 08:08:57;;;;;;;35.70;15.85;;;;;;;;;;4952981;28;20505;-68
2022/01/29 08:11:24;;;;;;;40.45;16.33;;;;;;;;;;4972991;28;20030;-69
2022/01/29 08:13:50;;;;;;;36.33;15.82;;;;;;;;;;4990843;28;20360;-69
2022/01/29 08:16:16;;;;;;;33.60;16.23;;;;;;;;;;4971086;28;20039;-69
2022/01/29 08:18:43;;;;;;;43.20;17.67;;;;;;;;;;4953293;28;20024;-68
2022/01/29 08:21:13;;;;;;;38.55;17.63;;;;;;;;;;4981918;28;20488;-69
2022/01/29 08:23:39;;;;;;;34.67;16.42;;;;;;;;;;4952575;28;20098;-68
2022/01/29 08:26:05;;;;;;;32.53;16.90;;;;;;;;;;4952448;28;20569;-69
2022/01/29 08:28:31;;;;;;;32.97;16.38;;;;;;;;;;4955281;28;20024;-68
2022/01/29 08:30:57;;;;;;;33.20;15.88;;;;;;;;;;4972891;28;20042;-69
2022/01/29 08:33:23;;;;;;;34.45;12.98;;;;;;;;;;4977874;28;20109;-69
2022/01/29 08:35:50;;;;;;;28.25;12.93;;;;;;;;;;4960306;28;20504;-68
2022/01/29 08:38:16;;;;;;;22.25;11.90;;;;;;;;;;4975957;28;20038;-69
2022/01/29 08:40:42;;;;;;;25.33;12.80;;;;;;;;;;4977204;28;20039;-70
2022/01/29 08:43:09;;;;;;;26.25;11.60;;;;;;;;;;4976185;28;20035;-69
2022/01/29 08:45:35;;;;;;;23.15;10.75;;;;;;;;;;4968009;28;20019;-70
2022/01/29 08:48:01;;;;;;;33.67;10.85;;;;;;;;;;4971546;28;20042;-68
2022/01/29 08:50:27;;;;;;;21.83;9.38;;;;;;;;;;4975061;28;20137;-69
2022/01/29 08:52:53;;;;;;;28.05;10.10;;;;;;;;;;4974929;28;20022;-69
2022/01/29 08:55:19;;;;;;;27.77;10.20;;;;;;;;;;4977537;28;20050;-69
2022/01/29 08:57:45;;;;;;;27.77;10.52;;;;;;;;;;4992578;28;20042;-69
2022/01/29 09:00:13;;;;;;;28.75;10.07;;;;;;;;;;4986464;28;20050;-70
2022/01/29 09:02:39;;;;;;;28.20;10.10;;;;;;;;;;4954995;28;20039;-68
2022/01/29 09:05:06;;;;;;;26.65;10.18;;;;;;;;;;4990236;28;20038;-68
2022/01/29 09:07:32;;;;;;;29.70;8.68;;;;;;;;;;4971161;28;20085;-69
2022/01/29 09:09:58;;;;;;;23.75;8.45;;;;;;;;;;4969888;28;20486;-69
2022/01/29 09:12:24;;;;;;;22.23;8.73;;;;;;;;;;4963044;28;20477;-69
2022/01/29 09:14:50;;;;;;;21.25;8.63;;;;;;;;;;4959662;28;20049;-68
2022/01/29 09:17:16;;;;;;;23.63;8.43;;;;;;;;;;4958790;28;20442;-69
2022/01/29 09:19:42;;;;;;;25.27;7.10;;;;;;;;;;4957066;28;20027;-69
2022/01/29 09:22:08;;;;;;;28.35;8.15;;;;;;;;;;4972243;28;20030;-69
2022/01/29 09:24:34;;;;;;;17.27;6.95;;;;;;;;;;4974444;28;20062;-70
2022/01/29 09:27:00;;;;;;;25.08;8.77;;;;;;;;;;4970040;28;20091;-68
2022/01/29 09:29:27;;;;;;;22.90;5.75;;;;;;;;;;4957387;28;20027;-69
2022/01/29 09:31:53;;;;;;;18.27;5.97;;;;;;;;;;4960353;28;20058;-68
2022/01/29 09:34:19;;;;;;;20.00;5.93;;;;;;;;;;4968806;28;20030;-69
2022/01/29 09:36:45;;;;;;;20.73;5.07;;;;;;;;;;4969922;28;20027;-68
2022/01/29 09:39:11;;;;;;;16.55;5.38;;;;;;;;;;4958726;28;20049;-69
2022/01/29 09:41:38;;;;;;;18.38;4.70;;;;;;;;;;4968100;28;20031;-68
2022/01/29 09:44:05;;;;;;;18.80;4.70;;;;;;;;;;4963301;28;20039;-68
2022/01/29 09:46:31;;;;;;;23.58;5.15;;;;;;;;;;4958846;28;20098;-69
2022/01/29 09:48:57;;;;;;;17.08;5.07;;;;;;;;;;4974332;28;20054;-70
2022/01/29 09:51:23;;;;;;;19.15;5.00;;;;;;;;;;4970959;28;20046;-70
2022/01/29 09:53:50;;;;;;;14.88;4.65;;;;;;;;;;4964888;28;20038;-68
2022/01/29 09:56:16;;;;;;;14.55;4.78;;;;;;;;;;4969887;28;20050;-70
2022/01/29 09:58:42;;;;;;;16.33;4.00;;;;;;;;;;4962133;28;20118;-69
2022/01/29 10:01:08;;;;;;;15.23;3.60;;;;;;;;;;4977713;28;20065;-69
2022/01/29 10:03:34;;;;;;;13.65;3.53;;;;;;;;;;4970874;28;20043;-68
2022/01/29 10:06:01;;;;;;;18.58;3.70;;;;;;;;;;4971454;28;20030;-68
2022/01/29 10:08:27;;;;;;;15.73;4.28;;;;;;;;;;4959529;28;20083;-69
2022/01/29 10:10:58;;;;;;;14.20;3.67;;;;;;;;;;4965582;28;20041;-69
2022/01/29 10:13:28;;;;;;;19.98;4.47;;;;;;;;;;4970554;28;20038;-69
2022/01/29 10:16:15;;;;;;;17.15;4.00;;;;;;;;;;4973973;28;20050;-68
2022/01/29 10:18:45;;;;;;;15.90;3.13;;;;;;;;;;4962020;28;20031;-68
2022/01/29 10:21:21;;;;;;;19.33;3.58;;;;;;;;;;4958626;28;20114;-68
2022/01/29 10:23:48;;;;;;;19.80;3.60;;;;;;;;;;4965761;28;20031;-68
2022/01/29 10:26:29;;;;;;;16.05;3.50;;;;;;;;;;4973225;28;20106;-69
2022/01/29 10:28:56;;;;;;;19.88;4.00;;;;;;;;;;4973767;28;20027;-69
2022/01/29 10:31:22;;;;;;;23.15;4.03;;;;;;;;;;4974008;28;20022;-69
2022/01/29 10:33:48;;;;;;;14.23;3.15;;;;;;;;;;4979986;28;20096;-69
2022/01/29 10:36:16;;;;;;;22.27;3.28;;;;;;;;;;4964227;28;20028;-69
2022/01/29 10:38:42;;;;;;;22.52;4.95;;;;;;;;;;4962738;28;20031;-68
2022/01/29 10:41:23;;;;;;;11.52;3.03;;;;;;;;;;4971978;28;20035;-68
2022/01/29 10:43:55;;;;;;;18.05;2.88;;;;;;;;;;4974730;28;20015;-69
2022/01/29 10:46:28;;;;;;;16.33;3.75;;;;;;;;;;4973795;28;20034;-68
2022/01/29 10:48:55;;;;;;;17.67;3.22;;;;;;;;;;4972378;28;20031;-69
2022/01/29 10:51:21;;;;;;;14.73;3.92;;;;;;;;;;4964474;28;20118;-69
2022/01/29 10:53:47;;;;;;;17.48;3.00;;;;;;;;;;4970512;28;20031;-69
2022/01/29 10:56:13;;;;;;;14.00;3.92;;;;;;;;;;4953613;28;20459;-70
2022/01/29 10:58:43;;;;;;;19.80;2.97;;;;;;;;;;4952782;28;20111;-68
2022/01/29 11:01:15;;;;;;;12.50;3.03;;;;;;;;;;4964703;28;20065;-69
2022/01/29 11:03:43;;;;;;;13.30;3.53;;;;;;;;;;4972646;28;20563;-69
2022/01/29 11:06:11;;;;;;;14.55;2.83;;;;;;;;;;4965845;28;20481;-69
2022/01/29 11:08:40;;;;;;;14.30;2.97;;;;;;;;;;4965958;28;20058;-69
2022/01/29 11:11:10;;;;;;;20.13;2.90;;;;;;;;;;4957535;28;20078;-68
2022/01/29 11:13:36;;;;;;;11.73;3.78;;;;;;;;;;4955657;28;20077;-69
2022/01/29 11:16:04;;;;;;;14.63;2.90;;;;;;;;;;4998572;28;20708;-69
2022/01/29 11:18:31;;;;;;;9.73;2.33;;;;;;;;;;4974098;28;20542;-69
2022/01/29 11:20:59;;;;;;;13.07;2.67;;;;;;;;;;4972437;28;20027;-69
2022/01/29 11:23:26;;;;;;;9.75;3.00;;;;;;;;;;4960491;28;20039;-69
2022/01/29 11:25:55;;;;;;;11.70;2.38;;;;;;;;;;4963084;28;20049;-69
2022/01/29 11:28:22;;;;;;;8.77;2.33;;;;;;;;;;4968184;28;20034;-69
2022/01/29 11:31:08;;;;;;;11.38;3.03;;;;;;;;;;4951851;28;20571;-68
2022/01/29 11:33:34;;;;;;;15.82;2.72;;;;;;;;;;4962227;28;20031;-69
2022/01/29 11:36:00;;;;;;;12.20;3.03;;;;;;;;;;4967020;28;20513;-69
2022/01/29 11:38:29;;;;;;;14.00;2.50;;;;;;;;;;4956974;28;20050;-70
2022/01/29 11:40:57;;;;;;;11.52;2.92;;;;;;;;;;4962363;28;20038;-69
2022/01/29 11:43:24;;;;;;;10.20;2.78;;;;;;;;;;4963160;28;20039;-69
2022/01/29 11:45:52;;;;;;;12.95;3.28;;;;;;;;;;4972316;28;20035;-69
2022/01/29 11:48:31;;;;;;;14.10;3.00;;;;;;;;;;4962538;28;20481;-69
2022/01/29 11:50:58;;;;;;;10.82;3.13;;;;;;;;;;4957490;28;20141;-69
2022/01/29 11:53:25;;;;;;;14.38;2.88;;;;;;;;;;4956847;28;20126;-69
2022/01/29 11:55:53;;;;;;;18.92;3.20;;;;;;;;;;4956826;28;20031;-70
2022/01/29 11:58:20;;;;;;;13.45;3.97;;;;;;;;;;4958458;28;20027;-68
2022/01/29 12:00:51;;;;;;;17.38;3.60;;;;;;;;;;4961259;28;20023;-69
2022/01/29 12:03:42;;;;;;;15.73;2.83;;;;;;;;;;4955401;28;20126;-68
2022/01/29 12:06:30;;;;;;;12.45;3.05;;;;;;;;;;4958237;28;20584;-68
2022/01/29 12:09:05;;;;;;;11.48;2.78;;;;;;;;;;4969512;28;20051;-70
2022/01/29 12:11:35;;;;;;;13.27;3.25;;;;;;;;;;4962319;28;20098;-69
2022/01/29 12:14:17;;;;;;;22.20;4.28;;;;;;;;;;4963927;28;20015;-69
2022/01/29 12:16:47;;;;;;;14.75;3.13;;;;;;;;;;4979098;28;20548;-68
2022/01/29 12:19:32;;;;;;;14.80;2.60;;;;;;;;;;4956738;28;20027;-69
2022/01/29 12:21:58;;;;;;;12.60;2.65;;;;;;;;;;4961319;28;20106;-69
2022/01/29 12:24:24;;;;;;;11.98;2.40;;;;;;;;;;4966620;28;20065;-68
2022/01/29 12:26:57;;;;;;;12.95;3.25;;;;;;;;;;4970622;28;20110;-67
2022/01/29 12:29:23;;;;;;;10.00;2.33;;;;;;;;;;4970808;28;20031;-69
2022/01/29 12:31:52;;;;;;;8.60;2.70;;;;;;;;;;4955814;28;20035;-66
2022/01/29 12:34:20;;;;;;;16.40;2.47;;;;;;;;;;4964894;28;20031;-67
2022/01/29 12:36:46;;;;;;;12.23;2.20;;;;;;;;;;4964163;28;20118;-70
2022/01/29 12:39:21;;;;;;;7.45;2.40;;;;;;;;;;4976599;28;20097;-68
2022/01/29 12:42:01;;;;;;;9.88;2.63;;;;;;;;;;4984249;28;20078;-70
2022/01/29 12:44:27;;;;;;;10.05;2.33;;;;;;;;;;4964939;28;20498;-70
2022/01/29 12:46:53;;;;;;;14.55;3.38;;;;;;;;;;4971415;28;20046;-68
2022/01/29 12:49:19;;;;;;;11.18;2.72;;;;;;;;;;4961640;28;20035;-70
2022/01/29 12:51:52;;;;;;;18.60;3.80;;;;;;;;;;4971423;28;20031;-70
2022/01/29 12:54:18;;;;;;;11.10;2.60;;;;;;;;;;4967476;28;20031;-68
2022/01/29 12:56:45;;;;;;;11.27;2.50;;;;;;;;;;4962999;28;20114;-69
2022/01/29 12:59:12;;;;;;;12.10;3.00;;;;;;;;;;4958219;28;20118;-71
2022/01/29 13:01:39;;;;;;;11.15;2.35;;;;;;;;;;4962844;28;20027;-69
2022/01/29 13:04:12;;;;;;;13.95;2.45;;;;;;;;;;4962108;28;20034;-70
2022/01/29 13:06:38;;;;;;;12.93;3.22;;;;;;;;;;4964065;28;20039;-70
2022/01/29 13:09:13;;;;;;;11.57;3.40;;;;;;;;;;4960637;28;20054;-71
2022/01/29 13:11:39;;;;;;;11.50;2.78;;;;;;;;;;4953801;28;20034;-71
2022/01/29 13:14:12;;;;;;;12.32;2.75;;;;;;;;;;4959281;28;20031;-71
2022/01/29 13:16:38;;;;;;;17.60;3.22;;;;;;;;;;4984678;28;20043;-70
2022/01/29 13:19:05;;;;;;;14.85;2.75;;;;;;;;;;4964311;28;20038;-71
2022/01/29 13:21:33;;;;;;;9.23;2.58;;;;;;;;;;4963816;28;20079;-71
2022/01/29 13:23:59;;;;;;;13.80;3.45;;;;;;;;;;4956644;28;20059;-70
2022/01/29 13:26:29;;;;;;;18.05;3.28;;;;;;;;;;4985911;28;20082;-70
2022/01/29 13:29:02;;;;;;;12.27;2.60;;;;;;;;;;4970897;28;20035;-69
2022/01/29 13:31:29;;;;;;;18.10;3.00;;;;;;;;;;4963490;28;20038;-70
2022/01/29 13:33:56;;;;;;;15.60;2.60;;;;;;;;;;4969800;28;20046;-71
2022/01/29 13:36:32;;;;;;;12.48;3.03;;;;;;;;;;4970544;28;20041;-71
2022/01/29 13:39:06;;;;;;;7.25;2.38;;;;;;;;;;4956766;28;20046;-70
2022/01/29 13:41:32;;;;;;;10.43;2.47;;;;;;;;;;4965014;28;20027;-70
2022/01/29 13:44:08;;;;;;;22.63;3.65;;;;;;;;;;4953975;28;20020;-70
2022/01/29 13:46:34;;;;;;;15.35;2.88;;;;;;;;;;4957404;28;20030;-71
2022/01/29 13:49:02;;;;;;;12.05;3.60;;;;;;;;;;4961979;28;20023;-70
2022/01/29 13:51:40;;;;;;;7.95;2.55;;;;;;;;;;4990398;28;20049;-71
2022/01/29 13:54:08;;;;;;;18.30;3.15;;;;;;;;;;4957249;28;20027;-68
2022/01/29 13:56:35;;;;;;;10.85;2.72;;;;;;;;;;4960982;28;20105;-71
2022/01/29 13:59:03;;;;;;;12.02;2.95;;;;;;;;;;4960437;28;20019;-68
2022/01/29 14:01:50;;;;;;;6.43;2.10;;;;;;;;;;4958913;28;20034;-70
2022/01/29 14:04:28;;;;;;;42.85;3.03;;;;;;;;;;4966173;28;20034;-71
2022/01/29 14:06:56;;;;;;;19.05;3.22;;;;;;;;;;4966781;28;20035;-69
2022/01/29 14:09:34;;;;;;;9.57;1.88;;;;;;;;;;4956517;28;20520;-69
2022/01/29 14:12:03;;;;;;;9.70;2.65;;;;;;;;;;4960697;28;20027;-72
2022/01/29 14:14:32;;;;;;;14.88;2.22;;;;;;;;;;4953978;28;20035;-70
2022/01/29 14:16:59;;;;;;;9.93;2.15;;;;;;;;;;4967429;28;20033;-74
2022/01/29 14:19:30;;;;;;;10.98;2.10;;;;;;;;;;4966255;28;20038;-69
2022/01/29 14:21:57;;;;;;;7.47;1.97;;;;;;;;;;4970239;28;20039;-69
2022/01/29 14:24:23;;;;;;;12.30;1.90;;;;;;;;;;4958722;28;20416;-71
2022/01/29 14:26:50;;;;;;;11.70;2.15;;;;;;;;;;4956008;28;20067;-71
2022/01/29 14:29:16;;;;;;;13.82;2.00;;;;;;;;;;4960333;28;20049;-70
2022/01/29 14:31:42;;;;;;;6.65;2.17;;;;;;;;;;4952445;28;20086;-71
2022/01/29 14:34:08;;;;;;;8.57;1.80;;;;;;;;;;4984387;28;20031;-70
2022/01/29 14:36:38;;;;;;;6.50;1.80;;;;;;;;;;4983265;28;20445;-70